createdAt,value
2023-07-29T00:11:39.190Z,21.8
2023-07-29T00:41:38.709Z,21.7
2023-07-29T01:11:39.238Z,21.7
2023-07-29T01:41:39.162Z,21.7
2023-07-29T02:11:39.188Z,21.7
2023-07-29T03:11:39.181Z,21.6
2023-07-29T03:41:38.730Z,21.6
2023-07-29T04:11:39.214Z,21.6
2023-07-29T04:41:39.207Z,21.6
2023-07-29T05:41:39.249Z,21.6
2023-07-29T06:11:38.953Z,21.6
2023-07-29T06:41:39.011Z,21.6
2023-07-29T07:11:39.206Z,21.7
2023-07-29T07:41:39.172Z,21.8
2023-07-29T08:11:39.184Z,21.8
2023-07-29T08:41:39.184Z,21.8
2023-07-29T09:11:39.233Z,21.9
2023-07-29T09:41:39.156Z,22.1
2023-07-29T10:11:39.162Z,22.1
2023-07-29T10:41:39.189Z,22.2
2023-07-29T11:11:39.157Z,22.3
2023-07-29T11:41:39.134Z,22.5
2023-07-29T12:41:39.199Z,22.6
2023-07-29T13:11:39.112Z,22.8
2023-07-29T13:41:39.186Z,22.9
2023-07-29T14:11:39.149Z,23.0
2023-07-29T15:11:39.163Z,23.1
2023-07-29T15:41:39.101Z,23.0
2023-07-29T16:11:39.079Z,23.1
2023-07-29T16:41:39.078Z,23.1
2023-07-29T17:11:39.091Z,23.1
2023-07-29T17:41:39.183Z,23.0
2023-07-29T18:11:39.049Z,23.0
2023-07-29T18:41:39.073Z,23.0
2023-07-29T19:11:39.072Z,23.0
2023-07-29T19:41:39.078Z,23.0
2023-07-29T20:11:39.069Z,23.0
2023-07-29T20:41:39.057Z,23.0
2023-07-29T21:11:39.034Z,23.0
2023-07-29T21:41:39.074Z,23.0
2023-07-29T22:11:39.056Z,23.0
2023-07-29T22:41:39.076Z,22.9
2023-07-29T23:11:39.044Z,22.8
2023-07-29T23:41:39.088Z,22.8
